sensor_id;sensor_type;location;lat;lon;timestamp;P1;durP1;ratioP1;P2;durP2;ratioP2
11127;SDS011;5618;51.028;5.234;2022-07-04T00:00:38;0.80;;;0.57;;
11127;SDS011;5618;51.028;5.234;2022-07-04T00:03:03;1.75;;;0.55;;
11127;SDS011;5618;51.028;5.234;2022-07-04T00:05:30;1.20;;;0.90;;
11127;SDS011;5618;51.028;5.234;2022-07-04T00:07:56;1.08;;;0.80;;
11127;SDS011;5618;51.028;5.234;2022-07-04T00:10:22;0.60;;;0.60;;
11127;SDS011;5618;51.028;5.234;2022-07-04T00:12:47;2.38;;;0.80;;
11127;SDS011;5618;51.028;5.234;2022-07-04T00:15:13;0.50;;;0.50;;
11127;SDS011;5618;51.028;5.234;2022-07-04T00:17:40;0.40;;;0.40;;
11127;SDS011;5618;51.028;5.234;2022-07-04T00:20:06;0.63;;;0.63;;
11127;SDS011;5618;51.028;5.234;2022-07-04T00:22:33;1.40;;;0.80;;
11127;SDS011;5618;51.028;5.234;2022-07-04T00:24:59;0.65;;;0.65;;
11127;SDS011;5618;51.028;5.234;2022-07-04T00:27:25;0.55;;;0.55;;
11127;SDS011;5618;51.028;5.234;2022-07-04T00:29:51;1.23;;;0.82;;
11127;SDS011;5618;51.028;5.234;2022-07-04T00:32:17;0.82;;;0.77;;
11127;SDS011;5618;51.028;5.234;2022-07-04T00:34:43;1.60;;;0.60;;
11127;SDS011;5618;51.028;5.234;2022-07-04T00:37:09;1.17;;;0.60;;
11127;SDS011;5618;51.028;5.234;2022-07-04T00:39:35;0.70;;;0.70;;
11127;SDS011;5618;51.028;5.234;2022-07-04T00:42:01;1.55;;;0.70;;
11127;SDS011;5618;51.028;5.234;2022-07-04T00:44:27;0.70;;;0.70;;
11127;SDS011;5618;51.028;5.234;2022-07-04T00:46:53;2.10;;;0.98;;
11127;SDS011;5618;51.028;5.234;2022-07-04T00:49:18;1.00;;;0.85;;
11127;SDS011;5618;51.028;5.234;2022-07-04T00:51:44;0.88;;;0.70;;
11127;SDS011;5618;51.028;5.234;2022-07-04T00:54:14;0.40;;;0.40;;
11127;SDS011;5618;51.028;5.234;2022-07-04T00:56:43;1.17;;;0.85;;
11127;SDS011;5618;51.028;5.234;2022-07-04T00:59:10;0.98;;;0.70;;
11127;SDS011;5618;51.028;5.234;2022-07-04T01:01:36;0.75;;;0.75;;
11127;SDS011;5618;51.028;5.234;2022-07-04T01:04:03;0.45;;;0.45;;
11127;SDS011;5618;51.028;5.234;2022-07-04T01:06:30;1.02;;;0.68;;
11127;SDS011;5618;51.028;5.234;2022-07-04T01:08:56;2.50;;;0.70;;
11127;SDS011;5618;51.028;5.234;2022-07-04T01:11:22;2.47;;;0.60;;
11127;SDS011;5618;51.028;5.234;2022-07-04T01:13:48;0.60;;;0.60;;
11127;SDS011;5618;51.028;5.234;2022-07-04T01:16:14;0.43;;;0.43;;
11127;SDS011;5618;51.028;5.234;2022-07-04T01:18:39;1.20;;;0.85;;
11127;SDS011;5618;51.028;5.234;2022-07-04T01:21:06;0.77;;;0.68;;
11127;SDS011;5618;51.028;5.234;2022-07-04T01:23:36;1.25;;;0.80;;
11127;SDS011;5618;51.028;5.234;2022-07-04T01:26:05;0.68;;;0.60;;
11127;SDS011;5618;51.028;5.234;2022-07-04T01:28:31;1.30;;;0.85;;
11127;SDS011;5618;51.028;5.234;2022-07-04T01:30:57;0.60;;;0.60;;
11127;SDS011;5618;51.028;5.234;2022-07-04T01:33:22;1.23;;;0.70;;
11127;SDS011;5618;51.028;5.234;2022-07-04T01:35:48;1.10;;;0.50;;
11127;SDS011;5618;51.028;5.234;2022-07-04T01:38:14;1.00;;;0.73;;
11127;SDS011;5618;51.028;5.234;2022-07-04T01:40:40;0.60;;;0.60;;
11127;SDS011;5618;51.028;5.234;2022-07-04T01:43:06;0.63;;;0.63;;
11127;SDS011;5618;51.028;5.234;2022-07-04T01:45:31;0.70;;;0.70;;
11127;SDS011;5618;51.028;5.234;2022-07-04T01:47:59;0.98;;;0.60;;
11127;SDS011;5618;51.028;5.234;2022-07-04T01:50:26;2.00;;;0.85;;
11127;SDS011;5618;51.028;5.234;2022-07-04T01:52:51;0.82;;;0.73;;
11127;SDS011;5618;51.028;5.234;2022-07-04T01:55:17;0.73;;;0.70;;
11127;SDS011;5618;51.028;5.234;2022-07-04T01:57:43;1.00;;;0.55;;
11127;SDS011;5618;51.028;5.234;2022-07-04T02:00:09;1.67;;;0.40;;
11127;SDS011;5618;51.028;5.234;2022-07-04T02:02:57;1.90;;;0.65;;
11127;SDS011;5618;51.028;5.234;2022-07-04T02:05:23;0.73;;;0.73;;
11127;SDS011;5618;51.028;5.234;2022-07-04T02:07:49;0.50;;;0.50;;
11127;SDS011;5618;51.028;5.234;2022-07-04T02:10:15;0.85;;;0.85;;
11127;SDS011;5618;51.028;5.234;2022-07-04T02:12:42;0.80;;;0.80;;
11127;SDS011;5618;51.028;5.234;2022-07-04T02:15:26;0.70;;;0.70;;
11127;SDS011;5618;51.028;5.234;2022-07-04T02:17:53;2.80;;;0.93;;
11127;SDS011;5618;51.028;5.234;2022-07-04T02:20:19;0.93;;;0.47;;
11127;SDS011;5618;51.028;5.234;2022-07-04T02:22:45;0.77;;;0.77;;
11127;SDS011;5618;51.028;5.234;2022-07-04T02:25:10;1.65;;;0.47;;
11127;SDS011;5618;51.028;5.234;2022-07-04T02:27:36;1.10;;;0.73;;
11127;SDS011;5618;51.028;5.234;2022-07-04T02:30:03;1.40;;;0.60;;
11127;SDS011;5618;51.028;5.234;2022-07-04T02:32:29;0.93;;;0.70;;
11127;SDS011;5618;51.028;5.234;2022-07-04T02:34:55;1.40;;;0.77;;
11127;SDS011;5618;51.028;5.234;2022-07-04T02:37:21;0.70;;;0.70;;
11127;SDS011;5618;51.028;5.234;2022-07-04T02:39:46;0.80;;;0.80;;
11127;SDS011;5618;51.028;5.234;2022-07-04T02:42:12;0.73;;;0.65;;
11127;SDS011;5618;51.028;5.234;2022-07-04T02:44:38;0.75;;;0.57;;
11127;SDS011;5618;51.028;5.234;2022-07-04T02:47:03;0.75;;;0.68;;
11127;SDS011;5618;51.028;5.234;2022-07-04T02:49:29;0.60;;;0.60;;
11127;SDS011;5618;51.028;5.234;2022-07-04T02:51:55;1.75;;;0.60;;
11127;SDS011;5618;51.028;5.234;2022-07-04T02:54:21;1.08;;;0.98;;
11127;SDS011;5618;51.028;5.234;2022-07-04T02:56:46;1.10;;;0.75;;
11127;SDS011;5618;51.028;5.234;2022-07-04T02:59:12;1.08;;;0.82;;
11127;SDS011;5618;51.028;5.234;2022-07-04T03:01:38;0.85;;;0.85;;
11127;SDS011;5618;51.028;5.234;2022-07-04T03:04:04;0.90;;;0.88;;
11127;SDS011;5618;51.028;5.234;2022-07-04T03:06:29;1.10;;;1.02;;
11127;SDS011;5618;51.028;5.234;2022-07-04T03:08:55;2.70;;;0.85;;
11127;SDS011;5618;51.028;5.234;2022-07-04T03:11:21;1.27;;;0.95;;
11127;SDS011;5618;51.028;5.234;2022-07-04T03:13:46;2.47;;;1.13;;
11127;SDS011;5618;51.028;5.234;2022-07-04T03:16:12;1.17;;;1.08;;
11127;SDS011;5618;51.028;5.234;2022-07-04T03:18:38;1.23;;;1.00;;
11127;SDS011;5618;51.028;5.234;2022-07-04T03:21:04;1.02;;;0.93;;
11127;SDS011;5618;51.028;5.234;2022-07-04T03:23:30;0.95;;;0.95;;
11127;SDS011;5618;51.028;5.234;2022-07-04T03:25:57;1.67;;;1.00;;
11127;SDS011;5618;51.028;5.234;2022-07-04T03:28:23;1.00;;;1.00;;
11127;SDS011;5618;51.028;5.234;2022-07-04T03:30:48;0.90;;;0.90;;
11127;SDS011;5618;51.028;5.234;2022-07-04T03:33:15;1.80;;;0.93;;
11127;SDS011;5618;51.028;5.234;2022-07-04T03:35:41;1.58;;;1.20;;
11127;SDS011;5618;51.028;5.234;2022-07-04T03:38:06;1.65;;;1.27;;
11127;SDS011;5618;51.028;5.234;2022-07-04T03:40:32;1.63;;;0.93;;
11127;SDS011;5618;51.028;5.234;2022-07-04T03:43:00;1.45;;;1.20;;
11127;SDS011;5618;51.028;5.234;2022-07-04T03:45:26;1.48;;;1.38;;
11127;SDS011;5618;51.028;5.234;2022-07-04T03:47:51;1.63;;;1.17;;
11127;SDS011;5618;51.028;5.234;2022-07-04T03:50:17;1.15;;;1.05;;
11127;SDS011;5618;51.028;5.234;2022-07-04T03:52:43;2.05;;;1.35;;
11127;SDS011;5618;51.028;5.234;2022-07-04T03:55:09;2.78;;;1.05;;
11127;SDS011;5618;51.028;5.234;2022-07-04T03:57:35;1.55;;;1.45;;
11127;SDS011;5618;51.028;5.234;2022-07-04T04:00:01;5.53;;;1.70;;
11127;SDS011;5618;51.028;5.234;2022-07-04T04:02:28;1.40;;;1.27;;
11127;SDS011;5618;51.028;5.234;2022-07-04T04:04:53;5.30;;;1.63;;
11127;SDS011;5618;51.028;5.234;2022-07-04T04:07:38;1.35;;;1.23;;
11127;SDS011;5618;51.028;5.234;2022-07-04T04:10:04;2.38;;;1.73;;
11127;SDS011;5618;51.028;5.234;2022-07-04T04:12:30;1.45;;;1.35;;
11127;SDS011;5618;51.028;5.234;2022-07-04T04:14:55;1.83;;;1.50;;
11127;SDS011;5618;51.028;5.234;2022-07-04T04:17:21;1.60;;;1.50;;
11127;SDS011;5618;51.028;5.234;2022-07-04T04:19:47;1.85;;;1.25;;
11127;SDS011;5618;51.028;5.234;2022-07-04T04:22:12;1.52;;;1.42;;
11127;SDS011;5618;51.028;5.234;2022-07-04T04:24:38;1.67;;;1.55;;
11127;SDS011;5618;51.028;5.234;2022-07-04T04:27:04;2.03;;;1.60;;
11127;SDS011;5618;51.028;5.234;2022-07-04T04:29:30;6.28;;;4.45;;
11127;SDS011;5618;51.028;5.234;2022-07-04T04:31:56;5.22;;;3.33;;
11127;SDS011;5618;51.028;5.234;2022-07-04T04:34:21;2.65;;;2.38;;
11127;SDS011;5618;51.028;5.234;2022-07-04T04:36:47;2.33;;;1.88;;
11127;SDS011;5618;51.028;5.234;2022-07-04T04:39:13;1.75;;;1.65;;
11127;SDS011;5618;51.028;5.234;2022-07-04T04:41:38;2.50;;;1.90;;
11127;SDS011;5618;51.028;5.234;2022-07-04T04:44:04;3.70;;;2.28;;
11127;SDS011;5618;51.028;5.234;2022-07-04T04:46:30;5.90;;;2.85;;
11127;SDS011;5618;51.028;5.234;2022-07-04T04:48:56;3.80;;;1.80;;
11127;SDS011;5618;51.028;5.234;2022-07-04T04:51:21;1.80;;;1.70;;
11127;SDS011;5618;51.028;5.234;2022-07-04T04:53:47;2.55;;;1.70;;
11127;SDS011;5618;51.028;5.234;2022-07-04T04:56:13;2.50;;;1.70;;
11127;SDS011;5618;51.028;5.234;2022-07-04T04:58:39;2.03;;;1.90;;
11127;SDS011;5618;51.028;5.234;2022-07-04T05:01:05;1.45;;;1.35;;
11127;SDS011;5618;51.028;5.234;2022-07-04T05:03:30;1.88;;;1.77;;
11127;SDS011;5618;51.028;5.234;2022-07-04T05:05:56;2.72;;;1.90;;
11127;SDS011;5618;51.028;5.234;2022-07-04T05:08:22;1.80;;;1.70;;
11127;SDS011;5618;51.028;5.234;2022-07-04T05:10:50;3.80;;;1.60;;
11127;SDS011;5618;51.028;5.234;2022-07-04T05:13:17;2.08;;;1.73;;
11127;SDS011;5618;51.028;5.234;2022-07-04T05:15:44;4.78;;;2.05;;
11127;SDS011;5618;51.028;5.234;2022-07-04T05:18:09;2.00;;;1.42;;
11127;SDS011;5618;51.028;5.234;2022-07-04T05:20:35;2.30;;;2.10;;
11127;SDS011;5618;51.028;5.234;2022-07-04T05:23:01;2.13;;;1.60;;
11127;SDS011;5618;51.028;5.234;2022-07-04T05:25:27;2.00;;;1.80;;
11127;SDS011;5618;51.028;5.234;2022-07-04T05:27:52;3.60;;;1.92;;
11127;SDS011;5618;51.028;5.234;2022-07-04T05:30:18;2.58;;;1.95;;
11127;SDS011;5618;51.028;5.234;2022-07-04T05:32:44;2.63;;;1.83;;
11127;SDS011;5618;51.028;5.234;2022-07-04T05:35:09;5.05;;;1.77;;
11127;SDS011;5618;51.028;5.234;2022-07-04T05:37:35;4.10;;;1.70;;
11127;SDS011;5618;51.028;5.234;2022-07-04T05:40:01;5.10;;;2.22;;
11127;SDS011;5618;51.028;5.234;2022-07-04T05:42:28;4.07;;;2.13;;
11127;SDS011;5618;51.028;5.234;2022-07-04T05:44:54;3.00;;;2.10;;
11127;SDS011;5618;51.028;5.234;2022-07-04T05:47:19;4.30;;;2.20;;
11127;SDS011;5618;51.028;5.234;2022-07-04T05:49:49;2.90;;;1.90;;
11127;SDS011;5618;51.028;5.234;2022-07-04T05:52:14;1.45;;;1.35;;
11127;SDS011;5618;51.028;5.234;2022-07-04T05:54:40;3.47;;;1.70;;
11127;SDS011;5618;51.028;5.234;2022-07-04T05:57:06;2.72;;;1.95;;
11127;SDS011;5618;51.028;5.234;2022-07-04T05:59:32;1.92;;;1.70;;
11127;SDS011;5618;51.028;5.234;2022-07-04T06:01:58;2.03;;;1.80;;
11127;SDS011;5618;51.028;5.234;2022-07-04T06:04:24;2.03;;;1.65;;
11127;SDS011;5618;51.028;5.234;2022-07-04T06:06:50;2.03;;;1.50;;
11127;SDS011;5618;51.028;5.234;2022-07-04T06:09:15;3.28;;;1.48;;
11127;SDS011;5618;51.028;5.234;2022-07-04T06:11:41;2.28;;;1.38;;
11127;SDS011;5618;51.028;5.234;2022-07-04T06:14:07;1.75;;;1.45;;
11127;SDS011;5618;51.028;5.234;2022-07-04T06:16:32;1.58;;;1.48;;
11127;SDS011;5618;51.028;5.234;2022-07-04T06:18:58;1.65;;;1.23;;
11127;SDS011;5618;51.028;5.234;2022-07-04T06:21:24;2.20;;;1.70;;
11127;SDS011;5618;51.028;5.234;2022-07-04T06:23:49;2.83;;;1.27;;
11127;SDS011;5618;51.028;5.234;2022-07-04T06:26:15;2.92;;;1.50;;
11127;SDS011;5618;51.028;5.234;2022-07-04T06:28:41;1.85;;;1.27;;
11127;SDS011;5618;51.028;5.234;2022-07-04T06:31:06;1.38;;;1.20;;
11127;SDS011;5618;51.028;5.234;2022-07-04T06:33:32;1.50;;;1.20;;
11127;SDS011;5618;51.028;5.234;2022-07-04T06:36:18;1.38;;;1.00;;
11127;SDS011;5618;51.028;5.234;2022-07-04T06:38:43;1.65;;;1.10;;
11127;SDS011;5618;51.028;5.234;2022-07-04T06:41:09;1.40;;;1.20;;
11127;SDS011;5618;51.028;5.234;2022-07-04T06:43:36;0.95;;;0.95;;
11127;SDS011;5618;51.028;5.234;2022-07-04T06:46:01;1.90;;;1.10;;
11127;SDS011;5618;51.028;5.234;2022-07-04T06:48:27;1.13;;;0.82;;
11127;SDS011;5618;51.028;5.234;2022-07-04T06:50:53;2.53;;;1.58;;
11127;SDS011;5618;51.028;5.234;2022-07-04T06:53:18;1.20;;;1.08;;
11127;SDS011;5618;51.028;5.234;2022-07-04T06:55:44;1.17;;;0.80;;
11127;SDS011;5618;51.028;5.234;2022-07-04T06:58:09;2.60;;;0.95;;
11127;SDS011;5618;51.028;5.234;2022-07-04T07:00:35;5.93;;;1.13;;
11127;SDS011;5618;51.028;5.234;2022-07-04T07:03:02;2.42;;;0.95;;
11127;SDS011;5618;51.028;5.234;2022-07-04T07:05:28;1.75;;;1.23;;
11127;SDS011;5618;51.028;5.234;2022-07-04T07:07:55;1.73;;;0.90;;
11127;SDS011;5618;51.028;5.234;2022-07-04T07:10:22;1.10;;;0.88;;
11127;SDS011;5618;51.028;5.234;2022-07-04T07:12:48;3.45;;;1.27;;
11127;SDS011;5618;51.028;5.234;2022-07-04T07:15:13;1.20;;;0.90;;
11127;SDS011;5618;51.028;5.234;2022-07-04T07:17:41;0.98;;;0.98;;
11127;SDS011;5618;51.028;5.234;2022-07-04T07:20:07;1.15;;;0.50;;
11127;SDS011;5618;51.028;5.234;2022-07-04T07:22:33;1.63;;;0.80;;
11127;SDS011;5618;51.028;5.234;2022-07-04T07:24:59;2.47;;;1.10;;
11127;SDS011;5618;51.028;5.234;2022-07-04T07:27:25;1.27;;;1.08;;
11127;SDS011;5618;51.028;5.234;2022-07-04T07:29:51;2.13;;;1.05;;
11127;SDS011;5618;51.028;5.234;2022-07-04T07:32:16;1.13;;;0.85;;
11127;SDS011;5618;51.028;5.234;2022-07-04T07:34:42;1.90;;;0.82;;
11127;SDS011;5618;51.028;5.234;2022-07-04T07:37:08;3.25;;;0.90;;
11127;SDS011;5618;51.028;5.234;2022-07-04T07:39:34;2.75;;;0.88;;
11127;SDS011;5618;51.028;5.234;2022-07-04T07:42:00;2.90;;;0.88;;
11127;SDS011;5618;51.028;5.234;2022-07-04T07:44:26;0.82;;;0.57;;
11127;SDS011;5618;51.028;5.234;2022-07-04T07:46:52;1.88;;;0.77;;
11127;SDS011;5618;51.028;5.234;2022-07-04T07:49:17;2.67;;;0.50;;
11127;SDS011;5618;51.028;5.234;2022-07-04T07:51:43;3.08;;;1.10;;
11127;SDS011;5618;51.028;5.234;2022-07-04T07:54:09;1.85;;;0.90;;
11127;SDS011;5618;51.028;5.234;2022-07-04T07:56:35;1.60;;;0.85;;
11127;SDS011;5618;51.028;5.234;2022-07-04T07:59:01;2.85;;;1.05;;
11127;SDS011;5618;51.028;5.234;2022-07-04T08:01:26;2.45;;;1.00;;
11127;SDS011;5618;51.028;5.234;2022-07-04T08:03:52;1.13;;;0.85;;
11127;SDS011;5618;51.028;5.234;2022-07-04T08:06:36;5.38;;;1.20;;
11127;SDS011;5618;51.028;5.234;2022-07-04T08:09:02;1.00;;;0.90;;
11127;SDS011;5618;51.028;5.234;2022-07-04T08:11:28;3.17;;;0.80;;
11127;SDS011;5618;51.028;5.234;2022-07-04T08:13:54;0.80;;;0.80;;
11127;SDS011;5618;51.028;5.234;2022-07-04T08:16:20;5.85;;;1.08;;
11127;SDS011;5618;51.028;5.234;2022-07-04T08:18:45;3.05;;;1.02;;
11127;SDS011;5618;51.028;5.234;2022-07-04T08:21:11;0.95;;;0.80;;
11127;SDS011;5618;51.028;5.234;2022-07-04T08:23:38;4.57;;;1.40;;
11127;SDS011;5618;51.028;5.234;2022-07-04T08:26:05;0.60;;;0.60;;
11127;SDS011;5618;51.028;5.234;2022-07-04T08:28:30;2.33;;;0.93;;
11127;SDS011;5618;51.028;5.234;2022-07-04T08:30:56;1.83;;;0.70;;
11127;SDS011;5618;51.028;5.234;2022-07-04T08:33:23;1.50;;;1.17;;
11127;SDS011;5618;51.028;5.234;2022-07-04T08:35:49;1.25;;;0.85;;
11127;SDS011;5618;51.028;5.234;2022-07-04T08:38:15;3.40;;;0.80;;
11127;SDS011;5618;51.028;5.234;2022-07-04T08:40:41;0.85;;;0.68;;
11127;SDS011;5618;51.028;5.234;2022-07-04T08:43:07;2.65;;;0.90;;
11127;SDS011;5618;51.028;5.234;2022-07-04T08:45:38;1.55;;;0.98;;
11127;SDS011;5618;51.028;5.234;2022-07-04T08:48:06;3.85;;;0.77;;
11127;SDS011;5618;51.028;5.234;2022-07-04T08:50:35;0.73;;;0.73;;
11127;SDS011;5618;51.028;5.234;2022-07-04T08:53:10;2.47;;;0.93;;
11127;SDS011;5618;51.028;5.234;2022-07-04T08:55:40;3.22;;;0.85;;
11127;SDS011;5618;51.028;5.234;2022-07-04T08:58:25;0.82;;;0.60;;
11127;SDS011;5618;51.028;5.234;2022-07-04T09:00:55;3.50;;;1.05;;
11127;SDS011;5618;51.028;5.234;2022-07-04T09:03:25;2.88;;;0.82;;
11127;SDS011;5618;51.028;5.234;2022-07-04T09:05:53;3.42;;;0.57;;
11127;SDS011;5618;51.028;5.234;2022-07-04T09:08:19;1.02;;;0.75;;
11127;SDS011;5618;51.028;5.234;2022-07-04T09:10:45;1.98;;;0.75;;
11127;SDS011;5618;51.028;5.234;2022-07-04T09:13:12;1.45;;;1.00;;
11127;SDS011;5618;51.028;5.234;2022-07-04T09:15:46;4.78;;;1.35;;
11127;SDS011;5618;51.028;5.234;2022-07-04T09:18:27;2.90;;;0.80;;
11127;SDS011;5618;51.028;5.234;2022-07-04T09:20:53;1.33;;;0.63;;
11127;SDS011;5618;51.028;5.234;2022-07-04T09:23:24;1.67;;;0.82;;
11127;SDS011;5618;51.028;5.234;2022-07-04T09:28:38;1.30;;;0.73;;
11127;SDS011;5618;51.028;5.234;2022-07-04T09:31:13;4.20;;;0.50;;
11127;SDS011;5618;51.028;5.234;2022-07-04T09:33:44;1.45;;;0.68;;
11127;SDS011;5618;51.028;5.234;2022-07-04T09:36:13;1.55;;;0.60;;
11127;SDS011;5618;51.028;5.234;2022-07-04T09:38:41;0.73;;;0.63;;
11127;SDS011;5618;51.028;5.234;2022-07-04T09:41:07;2.03;;;0.73;;
11127;SDS011;5618;51.028;5.234;2022-07-04T09:43:58;1.42;;;0.40;;
11127;SDS011;5618;51.028;5.234;2022-07-04T09:46:25;1.17;;;0.52;;
11127;SDS011;5618;51.028;5.234;2022-07-04T09:48:51;0.50;;;0.50;;
11127;SDS011;5618;51.028;5.234;2022-07-04T09:54:14;2.17;;;0.60;;
11127;SDS011;5618;51.028;5.234;2022-07-04T09:56:51;2.92;;;0.55;;
11127;SDS011;5618;51.028;5.234;2022-07-04T09:59:19;1.40;;;0.60;;
11127;SDS011;5618;51.028;5.234;2022-07-04T10:01:45;2.38;;;0.57;;
11127;SDS011;5618;51.028;5.234;2022-07-04T10:04:11;0.57;;;0.30;;
11127;SDS011;5618;51.028;5.234;2022-07-04T10:06:41;0.40;;;0.40;;
11127;SDS011;5618;51.028;5.234;2022-07-04T10:09:10;2.22;;;0.90;;
11127;SDS011;5618;51.028;5.234;2022-07-04T10:11:44;1.25;;;0.57;;
11127;SDS011;5618;51.028;5.234;2022-07-04T10:14:11;1.02;;;0.30;;
11127;SDS011;5618;51.028;5.234;2022-07-04T10:16:38;0.40;;;0.40;;
11127;SDS011;5618;51.028;5.234;2022-07-04T10:19:05;0.75;;;0.57;;
11127;SDS011;5618;51.028;5.234;2022-07-04T10:21:32;2.05;;;0.73;;
11127;SDS011;5618;51.028;5.234;2022-07-04T10:23:58;2.00;;;0.40;;
11127;SDS011;5618;51.028;5.234;2022-07-04T10:26:25;1.95;;;0.55;;
11127;SDS011;5618;51.028;5.234;2022-07-04T10:28:54;0.50;;;0.50;;
11127;SDS011;5618;51.028;5.234;2022-07-04T10:31:22;1.58;;;0.60;;
11127;SDS011;5618;51.028;5.234;2022-07-04T10:33:50;0.55;;;0.55;;
11127;SDS011;5618;51.028;5.234;2022-07-04T10:36:18;4.47;;;0.70;;
11127;SDS011;5618;51.028;5.234;2022-07-04T10:38:49;0.40;;;0.40;;
11127;SDS011;5618;51.028;5.234;2022-07-04T10:41:17;2.47;;;0.60;;
11127;SDS011;5618;51.028;5.234;2022-07-04T10:46:34;0.82;;;0.57;;
11127;SDS011;5618;51.028;5.234;2022-07-04T10:54:34;0.43;;;0.43;;
11127;SDS011;5618;51.028;5.234;2022-07-04T10:59:42;0.40;;;0.40;;
11127;SDS011;5618;51.028;5.234;2022-07-04T11:02:33;0.60;;;0.30;;
11127;SDS011;5618;51.028;5.234;2022-07-04T11:18:03;1.33;;;0.40;;
11127;SDS011;5618;51.028;5.234;2022-07-04T11:20:33;0.47;;;0.40;;
11127;SDS011;5618;51.028;5.234;2022-07-04T11:23:09;1.02;;;0.55;;
11127;SDS011;5618;51.028;5.234;2022-07-04T11:25:40;1.95;;;0.75;;
11127;SDS011;5618;51.028;5.234;2022-07-04T11:28:20;1.77;;;0.40;;
11127;SDS011;5618;51.028;5.234;2022-07-04T11:30:58;1.50;;;0.60;;
11127;SDS011;5618;51.028;5.234;2022-07-04T11:33:28;1.13;;;0.32;;
11127;SDS011;5618;51.028;5.234;2022-07-04T11:41:25;0.50;;;0.50;;
11127;SDS011;5618;51.028;5.234;2022-07-04T11:44:12;1.33;;;0.47;;
11127;SDS011;5618;51.028;5.234;2022-07-04T11:50:10;2.17;;;0.50;;
11127;SDS011;5618;51.028;5.234;2022-07-04T11:52:48;0.45;;;0.40;;
11127;SDS011;5618;51.028;5.234;2022-07-04T11:55:19;1.00;;;0.63;;
11127;SDS011;5618;51.028;5.234;2022-07-04T11:57:47;0.80;;;0.50;;
11127;SDS011;5618;51.028;5.234;2022-07-04T12:00:18;1.95;;;0.80;;
11127;SDS011;5618;51.028;5.234;2022-07-04T12:02:46;1.23;;;1.02;;
11127;SDS011;5618;51.028;5.234;2022-07-04T12:05:14;0.30;;;0.30;;
11127;SDS011;5618;51.028;5.234;2022-07-04T12:07:44;0.57;;;0.40;;
11127;SDS011;5618;51.028;5.234;2022-07-04T12:10:16;0.45;;;0.30;;
11127;SDS011;5618;51.028;5.234;2022-07-04T12:15:22;0.30;;;0.30;;
11127;SDS011;5618;51.028;5.234;2022-07-04T12:17:50;1.45;;;0.60;;
11127;SDS011;5618;51.028;5.234;2022-07-04T12:20:19;1.75;;;0.50;;
11127;SDS011;5618;51.028;5.234;2022-07-04T12:22:53;0.75;;;0.40;;
11127;SDS011;5618;51.028;5.234;2022-07-04T12:25:33;2.70;;;0.50;;
11127;SDS011;5618;51.028;5.234;2022-07-04T12:28:04;0.85;;;0.60;;
11127;SDS011;5618;51.028;5.234;2022-07-04T12:30:33;1.23;;;0.60;;
11127;SDS011;5618;51.028;5.234;2022-07-04T12:33:04;0.60;;;0.55;;
11127;SDS011;5618;51.028;5.234;2022-07-04T12:35:31;1.42;;;0.63;;
11127;SDS011;5618;51.028;5.234;2022-07-04T12:38:05;2.00;;;0.50;;
11127;SDS011;5618;51.028;5.234;2022-07-04T12:40:35;0.95;;;0.63;;
11127;SDS011;5618;51.028;5.234;2022-07-04T12:43:03;2.33;;;0.40;;
11127;SDS011;5618;51.028;5.234;2022-07-04T12:45:44;0.50;;;0.50;;
11127;SDS011;5618;51.028;5.234;2022-07-04T12:48:29;0.60;;;0.60;;
11127;SDS011;5618;51.028;5.234;2022-07-04T12:50:55;1.10;;;0.70;;
11127;SDS011;5618;51.028;5.234;2022-07-04T12:53:41;0.40;;;0.40;;
11127;SDS011;5618;51.028;5.234;2022-07-04T12:56:08;0.88;;;0.40;;
11127;SDS011;5618;51.028;5.234;2022-07-04T12:58:35;1.40;;;0.50;;
11127;SDS011;5618;51.028;5.234;2022-07-04T13:01:02;0.43;;;0.35;;
11127;SDS011;5618;51.028;5.234;2022-07-04T13:03:28;1.67;;;0.40;;
11127;SDS011;5618;51.028;5.234;2022-07-04T13:05:54;3.20;;;0.43;;
11127;SDS011;5618;51.028;5.234;2022-07-04T13:08:22;0.80;;;0.60;;
11127;SDS011;5618;51.028;5.234;2022-07-04T13:10:48;1.38;;;0.60;;
11127;SDS011;5618;51.028;5.234;2022-07-04T13:13:34;0.60;;;0.43;;
11127;SDS011;5618;51.028;5.234;2022-07-04T13:15:59;3.30;;;1.05;;
11127;SDS011;5618;51.028;5.234;2022-07-04T13:18:25;0.55;;;0.55;;
11127;SDS011;5618;51.028;5.234;2022-07-04T13:20:51;1.73;;;0.68;;
11127;SDS011;5618;51.028;5.234;2022-07-04T13:23:17;0.93;;;0.40;;
11127;SDS011;5618;51.028;5.234;2022-07-04T13:25:42;0.40;;;0.40;;
11127;SDS011;5618;51.028;5.234;2022-07-04T13:28:08;3.22;;;0.75;;
11127;SDS011;5618;51.028;5.234;2022-07-04T13:30:34;2.17;;;0.70;;
11127;SDS011;5618;51.028;5.234;2022-07-04T13:32:59;2.00;;;0.65;;
11127;SDS011;5618;51.028;5.234;2022-07-04T13:35:25;0.40;;;0.40;;
11127;SDS011;5618;51.028;5.234;2022-07-04T13:37:51;1.38;;;0.88;;
11127;SDS011;5618;51.028;5.234;2022-07-04T13:40:17;0.68;;;0.50;;
11127;SDS011;5618;51.028;5.234;2022-07-04T13:42:42;0.85;;;0.85;;
11127;SDS011;5618;51.028;5.234;2022-07-04T13:45:23;0.43;;;0.40;;
11127;SDS011;5618;51.028;5.234;2022-07-04T13:47:50;0.90;;;0.40;;
11127;SDS011;5618;51.028;5.234;2022-07-04T13:50:16;2.17;;;0.73;;
11127;SDS011;5618;51.028;5.234;2022-07-04T13:52:42;2.80;;;0.70;;
11127;SDS011;5618;51.028;5.234;2022-07-04T13:55:08;1.33;;;0.65;;
11127;SDS011;5618;51.028;5.234;2022-07-04T13:57:34;0.82;;;0.50;;
11127;SDS011;5618;51.028;5.234;2022-07-04T14:00:02;0.73;;;0.50;;
11127;SDS011;5618;51.028;5.234;2022-07-04T14:02:29;0.75;;;0.50;;
11127;SDS011;5618;51.028;5.234;2022-07-04T14:04:55;2.88;;;0.75;;
11127;SDS011;5618;51.028;5.234;2022-07-04T14:07:20;1.65;;;0.65;;
11127;SDS011;5618;51.028;5.234;2022-07-04T14:09:46;1.58;;;0.77;;
11127;SDS011;5618;51.028;5.234;2022-07-04T14:12:12;0.88;;;0.60;;
11127;SDS011;5618;51.028;5.234;2022-07-04T14:14:39;0.63;;;0.40;;
11127;SDS011;5618;51.028;5.234;2022-07-04T14:17:05;2.38;;;0.77;;
11127;SDS011;5618;51.028;5.234;2022-07-04T14:19:31;2.30;;;1.02;;
11127;SDS011;5618;51.028;5.234;2022-07-04T14:21:56;2.28;;;0.77;;
11127;SDS011;5618;51.028;5.234;2022-07-04T14:24:22;0.98;;;0.45;;
11127;SDS011;5618;51.028;5.234;2022-07-04T14:26:50;0.60;;;0.57;;
11127;SDS011;5618;51.028;5.234;2022-07-04T14:29:19;1.38;;;0.88;;
11127;SDS011;5618;51.028;5.234;2022-07-04T14:31:45;0.93;;;0.60;;
11127;SDS011;5618;51.028;5.234;2022-07-04T14:34:11;2.10;;;0.70;;
11127;SDS011;5618;51.028;5.234;2022-07-04T14:36:37;0.43;;;0.43;;
11127;SDS011;5618;51.028;5.234;2022-07-04T14:39:04;0.30;;;0.30;;
11127;SDS011;5618;51.028;5.234;2022-07-04T14:41:30;3.25;;;0.73;;
11127;SDS011;5618;51.028;5.234;2022-07-04T14:43:56;1.70;;;0.85;;
11127;SDS011;5618;51.028;5.234;2022-07-04T14:46:22;2.15;;;1.10;;
11127;SDS011;5618;51.028;5.234;2022-07-04T14:48:47;1.10;;;0.50;;
11127;SDS011;5618;51.028;5.234;2022-07-04T14:51:13;1.27;;;0.60;;
11127;SDS011;5618;51.028;5.234;2022-07-04T14:53:39;0.88;;;0.70;;
11127;SDS011;5618;51.028;5.234;2022-07-04T14:56:04;1.83;;;0.70;;
11127;SDS011;5618;51.028;5.234;2022-07-04T14:58:30;1.25;;;0.85;;
11127;SDS011;5618;51.028;5.234;2022-07-04T15:00:56;1.23;;;0.65;;
11127;SDS011;5618;51.028;5.234;2022-07-04T15:03:22;0.80;;;0.80;;
11127;SDS011;5618;51.028;5.234;2022-07-04T15:05:48;1.10;;;0.70;;
11127;SDS011;5618;51.028;5.234;2022-07-04T15:08:13;1.08;;;0.70;;
11127;SDS011;5618;51.028;5.234;2022-07-04T15:10:39;2.58;;;0.93;;
11127;SDS011;5618;51.028;5.234;2022-07-04T15:13:05;3.03;;;0.80;;
11127;SDS011;5618;51.028;5.234;2022-07-04T15:15:31;3.50;;;0.80;;
11127;SDS011;5618;51.028;5.234;2022-07-04T15:17:57;0.85;;;0.85;;
11127;SDS011;5618;51.028;5.234;2022-07-04T15:20:22;2.50;;;1.05;;
11127;SDS011;5618;51.028;5.234;2022-07-04T15:23:06;1.58;;;0.88;;
11127;SDS011;5618;51.028;5.234;2022-07-04T15:25:51;0.90;;;0.68;;
11127;SDS011;5618;51.028;5.234;2022-07-04T15:28:16;2.80;;;0.98;;
11127;SDS011;5618;51.028;5.234;2022-07-04T15:30:42;2.15;;;0.82;;
11127;SDS011;5618;51.028;5.234;2022-07-04T15:33:08;3.40;;;0.80;;
11127;SDS011;5618;51.028;5.234;2022-07-04T15:35:39;1.85;;;0.93;;
11127;SDS011;5618;51.028;5.234;2022-07-04T15:38:08;1.27;;;0.80;;
11127;SDS011;5618;51.028;5.234;2022-07-04T15:40:34;1.67;;;0.80;;
11127;SDS011;5618;51.028;5.234;2022-07-04T15:43:00;2.80;;;0.90;;